createdAt,value
2023-05-05T00:02:13.138Z,52.14
2023-05-05T00:04:44.471Z,51.97
2023-05-05T00:07:15.331Z,52.06
2023-05-05T00:09:49.028Z,52.04
2023-05-05T00:12:20.291Z,52.05
2023-05-05T00:14:51.588Z,51.76
2023-05-05T00:17:22.028Z,51.92
2023-05-05T00:19:52.489Z,51.88
2023-05-05T00:22:22.832Z,51.70
2023-05-05T00:24:53.004Z,51.77
2023-05-05T00:27:23.511Z,51.97
2023-05-05T00:29:53.834Z,52.23
2023-05-05T00:32:24.556Z,52.09
2023-05-05T00:34:56.377Z,52.06
2023-05-05T00:37:27.320Z,51.86
2023-05-05T00:39:57.642Z,51.58
2023-05-05T00:42:28.287Z,51.70
2023-05-05T00:44:58.643Z,51.57
2023-05-05T00:47:29.366Z,51.57
2023-05-05T00:50:00.104Z,51.74
2023-05-05T00:52:31.029Z,51.35
2023-05-05T00:55:01.620Z,51.37
2023-05-05T00:57:32.221Z,51.45
2023-05-05T01:00:02.927Z,51.30
2023-05-05T01:02:33.193Z,51.29
2023-05-05T01:05:04.550Z,51.39
2023-05-05T01:07:42.337Z,51.44
2023-05-05T01:10:20.269Z,51.71
2023-05-05T01:12:58.019Z,51.54
2023-05-05T01:15:34.027Z,51.88
2023-05-05T01:18:11.125Z,51.72
2023-05-05T01:20:42.314Z,52.16
2023-05-05T01:23:22.921Z,52.31
2023-05-05T01:26:09.483Z,52.41
2023-05-05T01:29:08.479Z,52.40
2023-05-05T01:31:52.869Z,52.57
2023-05-05T01:34:27.031Z,52.62
2023-05-05T01:37:02.154Z,52.65
2023-05-05T01:39:35.522Z,52.92
2023-05-05T01:42:09.030Z,52.69
2023-05-05T01:44:39.779Z,52.69
2023-05-05T01:47:11.216Z,52.63
2023-05-05T01:49:42.318Z,52.85
2023-05-05T01:52:13.114Z,53.04
2023-05-05T01:54:47.755Z,53.07
2023-05-05T01:57:20.886Z,52.98
2023-05-05T01:59:52.808Z,52.99
2023-05-05T02:02:24.766Z,53.50
2023-05-05T02:04:56.486Z,53.36
2023-05-05T02:07:27.200Z,53.30
2023-05-05T02:09:58.308Z,53.43
2023-05-05T02:12:30.006Z,53.41
2023-05-05T02:15:01.978Z,53.41
2023-05-05T02:17:33.052Z,53.58
2023-05-05T02:20:04.185Z,53.58
2023-05-05T02:22:34.565Z,53.54
2023-05-05T02:25:06.131Z,53.56
2023-05-05T02:27:37.926Z,53.66
2023-05-05T02:30:11.642Z,53.60
2023-05-05T02:32:47.060Z,53.79
2023-05-05T02:35:20.093Z,53.36
2023-05-05T02:37:59.288Z,53.28
2023-05-05T02:40:30.923Z,52.62
2023-05-05T02:43:04.882Z,52.00
2023-05-05T02:45:35.424Z,50.60
2023-05-05T02:48:06.778Z,49.17
2023-05-05T02:50:38.038Z,47.61
2023-05-05T02:53:08.608Z,45.91
2023-05-05T02:55:44.600Z,44.21
2023-05-05T02:58:22.574Z,42.53
2023-05-05T03:01:00.264Z,40.75
2023-05-05T03:03:35.345Z,39.23
2023-05-05T03:06:11.231Z,37.53
2023-05-05T03:08:44.814Z,36.18
2023-05-05T03:11:19.287Z,34.88
2023-05-05T03:13:54.153Z,33.45
2023-05-05T03:16:24.970Z,32.04
2023-05-05T03:18:55.974Z,30.78
2023-05-05T03:21:26.656Z,29.79
2023-05-05T03:23:57.212Z,28.49
2023-05-05T03:26:27.591Z,27.54
2023-05-05T03:28:58.026Z,26.34
2023-05-05T03:31:28.801Z,25.28
2023-05-05T03:33:59.150Z,24.43
2023-05-05T03:36:29.625Z,23.48
2023-05-05T03:39:00.183Z,22.40
2023-05-05T03:41:32.410Z,21.64
2023-05-05T03:44:02.924Z,20.85
2023-05-05T03:46:33.135Z,20.21
2023-05-05T03:49:03.512Z,19.70
2023-05-05T03:51:33.998Z,19.24
2023-05-05T03:54:04.419Z,18.54
2023-05-05T03:56:34.876Z,17.96
2023-05-05T03:59:05.384Z,17.34
2023-05-05T04:01:35.944Z,16.76
2023-05-05T04:04:06.648Z,16.18
2023-05-05T04:06:38.136Z,15.94
2023-05-05T04:09:08.682Z,15.48
2023-05-05T04:11:38.919Z,14.82
2023-05-05T04:14:09.089Z,14.61
2023-05-05T04:16:39.356Z,14.10
2023-05-05T04:19:09.580Z,13.98
2023-05-05T04:21:40.751Z,13.79
2023-05-05T04:24:11.178Z,13.39
2023-05-05T04:26:41.321Z,12.81
2023-05-05T04:29:11.978Z,12.39
2023-05-05T04:31:42.567Z,12.09
2023-05-05T04:34:12.763Z,11.95
2023-05-05T04:36:42.970Z,11.72
2023-05-05T04:39:13.213Z,11.37
2023-05-05T04:41:43.343Z,11.22
2023-05-05T04:44:14.384Z,10.90
2023-05-05T04:46:44.870Z,10.60
2023-05-05T04:49:15.004Z,10.47
2023-05-05T04:51:46.294Z,10.14
2023-05-05T04:54:16.553Z,9.86
2023-05-05T04:56:47.559Z,9.61
2023-05-05T04:59:18.002Z,9.31
2023-05-05T05:01:48.314Z,8.94
2023-05-05T05:04:19.137Z,9.09
2023-05-05T05:06:49.511Z,8.86
2023-05-05T05:09:19.903Z,8.65
2023-05-05T05:11:50.610Z,8.44
2023-05-05T05:14:21.091Z,8.28
2023-05-05T05:16:52.104Z,7.95
2023-05-05T05:19:22.516Z,7.91
2023-05-05T05:21:52.827Z,7.81
2023-05-05T05:24:24.024Z,7.66
2023-05-05T05:26:54.542Z,7.64
2023-05-05T05:29:24.929Z,7.66
2023-05-05T05:31:55.068Z,7.47
2023-05-05T05:34:28.369Z,7.22
2023-05-05T05:36:58.487Z,7.58
2023-05-05T05:39:29.626Z,7.26
2023-05-05T05:42:00.315Z,7.37
2023-05-05T05:44:30.942Z,7.06
2023-05-05T05:47:01.885Z,7.24
2023-05-05T05:49:34.534Z,7.02
2023-05-05T05:52:06.656Z,6.64
2023-05-05T05:54:37.484Z,6.57
2023-05-05T05:57:08.003Z,6.33
2023-05-05T05:59:40.923Z,6.38
2023-05-05T06:02:11.327Z,6.27
2023-05-05T06:04:42.286Z,6.00
2023-05-05T06:07:13.450Z,6.12
2023-05-05T06:09:43.997Z,6.17
2023-05-05T06:12:14.309Z,6.16
2023-05-05T06:14:45.566Z,6.19
2023-05-05T06:17:16.048Z,6.17
2023-05-05T06:19:46.375Z,6.06
2023-05-05T06:22:16.801Z,6.09
2023-05-05T06:24:47.599Z,6.10
2023-05-05T06:27:18.352Z,6.17
2023-05-05T06:29:49.035Z,6.10
2023-05-05T06:32:20.115Z,5.94
2023-05-05T06:34:50.772Z,5.86
2023-05-05T06:37:21.130Z,5.77
2023-05-05T06:39:51.271Z,6.03
2023-05-05T06:42:21.654Z,6.19
2023-05-05T06:44:52.348Z,6.23
2023-05-05T06:47:23.079Z,6.33
2023-05-05T06:49:53.759Z,6.44
2023-05-05T06:52:24.217Z,6.62
2023-05-05T06:54:57.395Z,6.68
2023-05-05T06:57:28.525Z,6.56
2023-05-05T06:59:58.920Z,6.51
2023-05-05T07:02:29.728Z,6.36
2023-05-05T07:05:00.088Z,6.54
2023-05-05T07:07:32.806Z,7.35
2023-05-05T07:10:04.422Z,8.52
2023-05-05T07:12:34.662Z,9.50
2023-05-05T07:15:19.228Z,11.03
2023-05-05T07:17:56.250Z,12.50
2023-05-05T07:20:26.901Z,13.70
2023-05-05T07:22:57.799Z,14.71
2023-05-05T07:25:29.355Z,15.80
2023-05-05T07:27:59.864Z,16.69
2023-05-05T07:30:30.192Z,17.35
2023-05-05T07:33:00.544Z,17.98
2023-05-05T07:35:33.141Z,18.41
2023-05-05T07:38:03.886Z,18.96
2023-05-05T07:40:34.263Z,19.37
2023-05-05T07:43:05.462Z,19.35
2023-05-05T07:45:35.915Z,19.77
2023-05-05T07:48:06.514Z,20.07
2023-05-05T07:50:36.821Z,20.42
2023-05-05T07:53:14.383Z,20.34
2023-05-05T07:55:46.027Z,20.30
2023-05-05T07:58:17.275Z,20.45
2023-05-05T08:00:49.071Z,20.92
2023-05-05T08:03:24.005Z,21.37
2023-05-05T08:05:56.829Z,21.63
2023-05-05T08:08:27.525Z,21.58
2023-05-05T08:10:57.966Z,21.45
2023-05-05T08:13:28.283Z,21.57
2023-05-05T08:15:59.211Z,22.00
2023-05-05T08:18:29.572Z,22.33
2023-05-05T08:21:00.577Z,23.17
2023-05-05T08:23:31.497Z,24.01
2023-05-05T08:26:01.934Z,24.24
2023-05-05T08:28:32.593Z,24.37
2023-05-05T08:31:02.858Z,24.45
2023-05-05T08:33:33.178Z,24.34
2023-05-05T08:36:04.047Z,24.35
2023-05-05T08:38:34.441Z,24.36
2023-05-05T08:41:04.640Z,24.03
2023-05-05T08:43:36.303Z,24.09
2023-05-05T08:46:07.127Z,24.34
2023-05-05T08:48:37.628Z,24.21
2023-05-05T08:51:09.639Z,23.96
2023-05-05T08:53:49.633Z,23.88
2023-05-05T08:56:21.781Z,23.99
2023-05-05T08:58:52.794Z,24.25
2023-05-05T09:01:31.864Z,24.39
2023-05-05T09:04:03.461Z,24.44
2023-05-05T09:06:34.357Z,24.44
2023-05-05T09:09:05.893Z,24.38
2023-05-05T09:11:37.154Z,24.33
2023-05-05T09:14:07.596Z,24.05
2023-05-05T09:16:38.274Z,24.32
2023-05-05T09:19:09.066Z,24.56
2023-05-05T09:21:48.919Z,24.70
2023-05-05T09:24:19.635Z,25.00
2023-05-05T09:26:50.997Z,25.40
2023-05-05T09:29:23.239Z,26.54
2023-05-05T09:32:08.281Z,26.61
2023-05-05T09:34:42.045Z,26.92
2023-05-05T09:37:13.180Z,27.23
2023-05-05T09:39:55.059Z,27.15
2023-05-05T09:42:27.722Z,27.17
2023-05-05T09:44:59.928Z,27.49
2023-05-05T09:47:39.279Z,26.80
2023-05-05T09:50:11.374Z,27.36
2023-05-05T09:52:42.494Z,27.50
2023-05-05T09:55:18.970Z,27.64
2023-05-05T09:57:47.952Z,27.64
2023-05-05T10:00:19.295Z,27.59
2023-05-05T10:02:52.910Z,27.41
2023-05-05T10:05:23.373Z,27.35
2023-05-05T10:07:53.834Z,27.18
2023-05-05T10:10:24.575Z,27.18
2023-05-05T10:12:58.343Z,27.17
2023-05-05T10:15:35.350Z,27.25
2023-05-05T10:18:09.294Z,27.27
2023-05-05T10:20:43.941Z,27.02
2023-05-05T10:23:19.199Z,26.73
2023-05-05T10:25:57.552Z,26.38
2023-05-05T10:28:34.359Z,26.30
2023-05-05T10:31:24.230Z,26.12
2023-05-05T10:34:04.266Z,25.90
2023-05-05T10:36:36.375Z,25.68
2023-05-05T10:39:09.104Z,25.56
2023-05-05T10:41:39.848Z,25.07
2023-05-05T10:44:11.354Z,25.14
2023-05-05T10:46:43.094Z,24.98
2023-05-05T10:49:20.381Z,24.98
2023-05-05T10:51:55.324Z,24.91
2023-05-05T10:54:31.079Z,24.69
2023-05-05T10:57:04.862Z,24.75
2023-05-05T10:59:48.097Z,24.54
2023-05-05T11:02:26.213Z,24.18
2023-05-05T11:05:18.364Z,23.92
2023-05-05T11:07:54.841Z,23.19
2023-05-05T11:10:27.899Z,23.30
2023-05-05T11:13:30.188Z,23.30
2023-05-05T11:16:01.809Z,23.20
2023-05-05T11:18:35.735Z,22.57
2023-05-05T11:21:16.952Z,22.33
2023-05-05T11:23:49.928Z,21.89
2023-05-05T11:26:41.631Z,21.99
2023-05-05T11:29:12.600Z,21.25
2023-05-05T11:31:47.475Z,20.92
2023-05-05T11:34:28.608Z,21.61
2023-05-05T11:37:05.734Z,21.95
2023-05-05T11:39:43.937Z,22.10
2023-05-05T11:42:27.799Z,21.21
2023-05-05T11:45:00.226Z,21.02
2023-05-05T11:47:32.530Z,20.97
2023-05-05T11:50:22.850Z,20.75
2023-05-05T11:53:01.740Z,20.65
2023-05-05T11:55:32.609Z,20.88
2023-05-05T11:58:03.697Z,20.61
2023-05-05T12:00:34.638Z,20.52
2023-05-05T12:03:05.870Z,20.57
2023-05-05T12:05:37.520Z,20.87
2023-05-05T12:08:07.971Z,21.03
2023-05-05T12:10:38.835Z,20.93
2023-05-05T12:13:21.442Z,20.88
2023-05-05T12:15:52.715Z,21.28
2023-05-05T12:18:23.474Z,21.48
2023-05-05T12:20:56.501Z,20.77
2023-05-05T12:23:30.945Z,20.48
2023-05-05T12:26:04.915Z,20.40
2023-05-05T12:28:49.040Z,20.40
2023-05-05T12:31:22.986Z,19.99
2023-05-05T12:33:57.243Z,20.21
2023-05-05T12:36:41.033Z,20.00
2023-05-05T12:39:19.417Z,20.42
2023-05-05T12:42:07.404Z,20.56
2023-05-05T12:44:39.399Z,20.71
2023-05-05T12:47:10.232Z,20.98
2023-05-05T12:49:55.071Z,21.42
2023-05-05T12:52:45.996Z,22.25
2023-05-05T12:55:37.648Z,22.70
2023-05-05T12:58:11.174Z,22.50
2023-05-05T13:00:44.053Z,22.40
2023-05-05T13:03:29.038Z,22.55
2023-05-05T13:06:01.595Z,22.63
2023-05-05T13:08:44.976Z,22.59
2023-05-05T13:11:15.930Z,22.76
2023-05-05T13:13:46.957Z,23.15
2023-05-05T13:16:21.505Z,23.13
2023-05-05T13:18:56.088Z,23.20
2023-05-05T13:21:28.549Z,23.17
2023-05-05T13:24:19.085Z,23.00
2023-05-05T13:26:56.924Z,22.91
2023-05-05T13:29:31.291Z,23.07
2023-05-05T13:32:02.690Z,23.38
2023-05-05T13:34:32.987Z,23.29
2023-05-05T13:37:04.952Z,23.08
2023-05-05T13:39:39.364Z,23.22
2023-05-05T13:42:09.744Z,23.45
2023-05-05T13:44:40.917Z,23.27
2023-05-05T13:47:16.162Z,23.41
2023-05-05T13:49:46.536Z,23.31
2023-05-05T13:52:17.818Z,23.42
2023-05-05T13:54:48.995Z,23.50
2023-05-05T13:57:26.807Z,23.75
2023-05-05T13:59:59.462Z,23.65
2023-05-05T14:02:47.631Z,23.78
2023-05-05T14:05:18.188Z,23.67
2023-05-05T14:07:48.386Z,23.72
2023-05-05T14:10:19.011Z,23.66
2023-05-05T14:12:54.676Z,24.30
2023-05-05T14:15:27.508Z,24.44
2023-05-05T14:17:59.328Z,24.73
2023-05-05T14:20:29.664Z,24.44
2023-05-05T14:23:10.002Z,23.82
2023-05-05T14:25:46.465Z,23.65
2023-05-05T14:28:18.172Z,23.82
2023-05-05T14:30:49.741Z,24.10
2023-05-05T14:33:19.948Z,24.28
2023-05-05T14:35:51.794Z,23.96
2023-05-05T14:38:22.484Z,24.31
2023-05-05T14:40:53.216Z,24.05
2023-05-05T14:43:25.408Z,24.06
2023-05-05T14:45:58.027Z,24.00
2023-05-05T14:48:29.476Z,24.23
2023-05-05T14:50:59.943Z,25.01
2023-05-05T14:53:30.367Z,25.25
2023-05-05T14:56:01.809Z,25.58
2023-05-05T14:58:33.229Z,25.88
2023-05-05T15:01:04.768Z,26.10
2023-05-05T15:03:36.566Z,26.42
2023-05-05T15:06:08.075Z,26.51
2023-05-05T15:08:39.261Z,26.57
2023-05-05T15:11:09.737Z,26.89
2023-05-05T15:13:41.323Z,27.14
2023-05-05T15:16:11.899Z,27.22
2023-05-05T15:18:42.432Z,27.34
2023-05-05T15:21:12.790Z,27.69
2023-05-05T15:23:44.296Z,27.74
2023-05-05T15:26:14.820Z,27.81
2023-05-05T15:28:45.213Z,27.97
2023-05-05T15:31:16.492Z,28.25
2023-05-05T15:33:49.366Z,28.50
2023-05-05T15:36:22.182Z,28.92
2023-05-05T15:38:52.618Z,29.34
2023-05-05T15:41:26.846Z,29.72
2023-05-05T15:43:57.990Z,29.99
2023-05-05T15:46:28.372Z,30.29
2023-05-05T15:48:58.976Z,30.45
2023-05-05T15:51:29.452Z,30.92
2023-05-05T15:53:59.966Z,31.31
2023-05-05T15:56:32.887Z,31.59
2023-05-05T15:59:03.935Z,32.02
2023-05-05T16:01:35.924Z,32.46
2023-05-05T16:04:09.431Z,32.71
2023-05-05T16:06:39.708Z,33.04
2023-05-05T16:09:10.424Z,33.39
2023-05-05T16:11:40.684Z,33.89
2023-05-05T16:14:10.988Z,34.04
2023-05-05T16:16:41.686Z,34.17
2023-05-05T16:19:12.126Z,34.02
2023-05-05T16:21:42.533Z,34.34
2023-05-05T16:24:15.921Z,34.50
2023-05-05T16:26:46.614Z,34.90
2023-05-05T16:29:17.040Z,35.46
2023-05-05T16:31:48.123Z,35.72
2023-05-05T16:34:18.500Z,35.83
2023-05-05T16:36:48.752Z,35.86
2023-05-05T16:39:19.666Z,35.98
2023-05-05T16:41:50.193Z,36.07
2023-05-05T16:44:20.480Z,36.20
2023-05-05T16:46:50.660Z,36.25
2023-05-05T16:49:21.024Z,36.57
2023-05-05T16:51:53.536Z,36.75
2023-05-05T16:54:26.093Z,36.83
2023-05-05T16:56:56.655Z,36.97
2023-05-05T16:59:28.828Z,37.17
2023-05-05T17:02:01.303Z,37.18
2023-05-05T17:04:32.030Z,37.29
2023-05-05T17:07:02.580Z,37.33
2023-05-05T17:09:33.815Z,37.65
2023-05-05T17:12:06.372Z,37.66
2023-05-05T17:14:37.562Z,37.57
2023-05-05T17:17:08.224Z,37.70
2023-05-05T17:19:39.668Z,37.76
2023-05-05T17:22:10.108Z,37.88
2023-05-05T17:24:40.647Z,38.21
2023-05-05T17:27:13.897Z,38.17
2023-05-05T17:29:44.394Z,38.23
2023-05-05T17:32:14.471Z,38.39
2023-05-05T17:34:44.706Z,38.48
2023-05-05T17:37:15.235Z,38.86
2023-05-05T17:39:45.663Z,39.16
2023-05-05T17:42:24.700Z,39.14
2023-05-05T17:44:55.433Z,39.72
2023-05-05T17:47:25.888Z,39.18
2023-05-05T17:49:57.161Z,38.99
2023-05-05T17:52:27.405Z,38.90
2023-05-05T17:54:58.779Z,39.03
2023-05-05T17:57:29.475Z,39.19
2023-05-05T17:59:59.896Z,39.30
2023-05-05T18:02:30.574Z,39.38
2023-05-05T18:05:03.526Z,39.54
2023-05-05T18:07:34.860Z,39.38
2023-05-05T18:10:06.606Z,39.34
2023-05-05T18:12:37.153Z,39.37
2023-05-05T18:15:09.432Z,39.43
2023-05-05T18:17:40.266Z,39.51
2023-05-05T18:20:12.375Z,39.80
2023-05-05T18:22:45.555Z,39.84
2023-05-05T18:25:18.843Z,40.04
2023-05-05T18:27:49.152Z,40.08
2023-05-05T18:30:19.763Z,40.16
2023-05-05T18:32:50.045Z,40.28
2023-05-05T18:35:21.261Z,40.38
2023-05-05T18:37:52.085Z,40.40
2023-05-05T18:40:22.647Z,40.62
2023-05-05T18:42:53.624Z,40.78
2023-05-05T18:45:24.403Z,40.94
2023-05-05T18:47:56.435Z,41.19
2023-05-05T18:50:26.954Z,41.41
2023-05-05T18:52:57.360Z,41.81
2023-05-05T18:55:28.131Z,42.02
2023-05-05T18:57:58.983Z,42.35
2023-05-05T19:00:29.399Z,42.45
2023-05-05T19:02:59.731Z,42.67
2023-05-05T19:05:31.006Z,43.09
2023-05-05T19:08:01.165Z,43.17
2023-05-05T19:10:31.575Z,43.41
2023-05-05T19:13:02.074Z,43.44
2023-05-05T19:15:32.880Z,43.83
2023-05-05T19:18:05.177Z,44.10
2023-05-05T19:20:36.483Z,44.18
2023-05-05T19:23:06.799Z,44.07
2023-05-05T19:25:37.757Z,44.22
2023-05-05T19:28:08.013Z,44.42
2023-05-05T19:30:38.912Z,44.67
2023-05-05T19:33:09.371Z,44.85
2023-05-05T19:35:39.668Z,45.04
2023-05-05T19:38:10.227Z,45.09
2023-05-05T19:40:40.812Z,45.30
2023-05-05T19:43:11.175Z,45.40
2023-05-05T19:45:41.539Z,45.65
2023-05-05T19:48:11.806Z,45.52
2023-05-05T19:50:42.064Z,45.52
2023-05-05T19:53:12.553Z,45.65
2023-05-05T19:55:42.742Z,46.11
2023-05-05T19:58:13.201Z,46.16
2023-05-05T20:00:45.885Z,46.28
2023-05-05T20:03:17.775Z,46.30
2023-05-05T20:05:48.107Z,46.50
2023-05-05T20:08:18.257Z,46.58
2023-05-05T20:10:50.479Z,46.74
2023-05-05T20:13:20.866Z,46.96
2023-05-05T20:15:51.671Z,46.94
2023-05-05T20:18:22.540Z,47.10
2023-05-05T20:20:52.967Z,47.31
2023-05-05T20:23:23.208Z,47.23
2023-05-05T20:25:54.034Z,47.44
2023-05-05T20:28:25.265Z,47.55
2023-05-05T20:30:55.530Z,47.63
2023-05-05T20:33:25.852Z,47.55
2023-05-05T20:35:56.261Z,47.72
2023-05-05T20:38:26.540Z,47.85
2023-05-05T20:40:57.190Z,47.77
2023-05-05T20:43:27.695Z,47.95
2023-05-05T20:46:00.629Z,48.11
2023-05-05T20:48:31.580Z,48.31
2023-05-05T20:51:06.674Z,48.22
2023-05-05T20:53:37.386Z,48.24
2023-05-05T20:56:09.092Z,48.48
2023-05-05T20:58:39.834Z,48.38
2023-05-05T21:01:10.075Z,48.49
2023-05-05T21:03:40.623Z,48.72
2023-05-05T21:06:10.863Z,48.98
2023-05-05T21:08:41.614Z,49.01
2023-05-05T21:11:12.419Z,48.99
2023-05-05T21:13:45.487Z,48.93
2023-05-05T21:16:15.672Z,49.17
2023-05-05T21:18:47.005Z,49.43
2023-05-05T21:21:17.611Z,49.63
2023-05-05T21:23:49.014Z,49.63
2023-05-05T21:26:19.089Z,49.59
2023-05-05T21:28:49.438Z,49.84
2023-05-05T21:31:22.195Z,49.85
2023-05-05T21:33:53.169Z,49.99
2023-05-05T21:36:24.468Z,49.92
2023-05-05T21:38:56.059Z,50.04
2023-05-05T21:41:27.900Z,50.06
2023-05-05T21:43:58.548Z,50.22
2023-05-05T21:46:28.799Z,50.32
2023-05-05T21:48:59.077Z,50.24
2023-05-05T21:51:29.308Z,50.25
2023-05-05T21:53:59.524Z,50.53
2023-05-05T21:56:29.845Z,50.76
2023-05-05T21:58:59.968Z,51.02
2023-05-05T22:01:30.707Z,51.10
2023-05-05T22:04:01.367Z,51.32
2023-05-05T22:06:32.384Z,51.25
2023-05-05T22:09:02.609Z,51.45
2023-05-05T22:11:32.898Z,51.45
2023-05-05T22:14:03.258Z,51.41
2023-05-05T22:16:33.663Z,51.40
2023-05-05T22:19:03.863Z,51.35
2023-05-05T22:21:34.296Z,51.42
2023-05-05T22:24:05.115Z,51.36
2023-05-05T22:26:39.571Z,51.26
2023-05-05T22:29:11.016Z,51.25
2023-05-05T22:31:41.516Z,51.50
2023-05-05T22:34:12.222Z,51.66
2023-05-05T22:36:42.814Z,51.75
2023-05-05T22:39:13.512Z,51.61
2023-05-05T22:41:44.265Z,51.68
2023-05-05T22:44:15.187Z,51.76
2023-05-05T22:46:45.990Z,51.77
2023-05-05T22:49:19.120Z,52.20
2023-05-05T22:51:51.678Z,52.10
2023-05-05T22:54:23.461Z,52.13
2023-05-05T22:56:54.583Z,52.27
2023-05-05T22:59:25.122Z,52.12
2023-05-05T23:01:55.844Z,52.24
2023-05-05T23:04:26.311Z,52.34
2023-05-05T23:06:57.192Z,52.34
2023-05-05T23:09:27.713Z,52.40
2023-05-05T23:11:57.905Z,52.46
2023-05-05T23:14:28.528Z,52.23
2023-05-05T23:17:00.075Z,52.50
2023-05-05T23:19:32.181Z,52.59
2023-05-05T23:22:02.658Z,52.62
2023-05-05T23:24:33.808Z,52.71
2023-05-05T23:27:06.350Z,53.01
2023-05-05T23:29:37.365Z,53.05
2023-05-05T23:32:09.138Z,52.98
2023-05-05T23:34:41.599Z,53.00
2023-05-05T23:37:13.087Z,53.25
2023-05-05T23:39:45.415Z,53.44
2023-05-05T23:42:17.358Z,53.34
2023-05-05T23:44:47.938Z,53.49
2023-05-05T23:47:20.680Z,53.54
2023-05-05T23:49:51.680Z,53.63
2023-05-05T23:52:22.581Z,53.66
2023-05-05T23:54:53.160Z,53.53
2023-05-05T23:57:23.761Z,53.57
2023-05-05T23:59:54.689Z,53.62
